sensor_id;sensor_type;location;lat;lon;timestamp;pressure;altitude;pressure_sealevel;temperature;humidity
36190;BME280;22232;50.914;13.858;2023-03-22T00:00:25;97539.75;;;9.86;100.00
36190;BME280;22232;50.914;13.858;2023-03-22T00:02:56;97542.75;;;9.90;100.00
36190;BME280;22232;50.914;13.858;2023-03-22T00:05:24;97544.69;;;9.95;100.00
36190;BME280;22232;50.914;13.858;2023-03-22T00:07:52;97546.09;;;9.97;100.00
36190;BME280;22232;50.914;13.858;2023-03-22T00:10:25;97543.22;;;9.99;100.00
36190;BME280;22232;50.914;13.858;2023-03-22T00:12:54;97547.00;;;10.03;100.00
36190;BME280;22232;50.914;13.858;2023-03-22T00:15:22;97554.41;;;10.01;100.00
36190;BME280;22232;50.914;13.858;2023-03-22T00:17:49;97540.53;;;9.99;100.00
36190;BME280;22232;50.914;13.858;2023-03-22T00:20:18;97533.22;;;9.94;100.00
36190;BME280;22232;50.914;13.858;2023-03-22T00:22:46;97531.50;;;10.00;100.00
36190;BME280;22232;50.914;13.858;2023-03-22T00:25:14;97543.44;;;9.97;100.00
36190;BME280;22232;50.914;13.858;2023-03-22T00:27:42;97529.41;;;10.02;100.00
36190;BME280;22232;50.914;13.858;2023-03-22T00:30:10;97532.09;;;10.02;100.00
36190;BME280;22232;50.914;13.858;2023-03-22T00:32:38;97531.84;;;10.03;100.00
36190;BME280;22232;50.914;13.858;2023-03-22T00:35:06;97529.16;;;10.03;100.00
36190;BME280;22232;50.914;13.858;2023-03-22T00:37:35;97531.63;;;10.05;100.00
36190;BME280;22232;50.914;13.858;2023-03-22T00:40:09;97533.47;;;10.04;100.00
36190;BME280;22232;50.914;13.858;2023-03-22T00:42:40;97528.94;;;10.05;100.00
36190;BME280;22232;50.914;13.858;2023-03-22T00:45:09;97518.84;;;10.07;100.00
36190;BME280;22232;50.914;13.858;2023-03-22T00:47:37;97522.34;;;10.07;100.00
36190;BME280;22232;50.914;13.858;2023-03-22T00:50:06;97514.09;;;10.09;100.00
36190;BME280;22232;50.914;13.858;2023-03-22T00:52:34;97509.25;;;10.06;100.00
36190;BME280;22232;50.914;13.858;2023-03-22T00:55:01;97507.63;;;10.05;100.00
36190;BME280;22232;50.914;13.858;2023-03-22T00:57:29;97507.16;;;10.08;100.00
36190;BME280;22232;50.914;13.858;2023-03-22T00:59:57;97502.31;;;10.05;100.00
36190;BME280;22232;50.914;13.858;2023-03-22T01:02:25;97486.88;;;10.07;100.00
36190;BME280;22232;50.914;13.858;2023-03-22T01:04:56;97493.25;;;10.06;100.00
36190;BME280;22232;50.914;13.858;2023-03-22T01:07:25;97491.97;;;10.08;100.00
36190;BME280;22232;50.914;13.858;2023-03-22T01:09:53;97489.44;;;10.02;100.00
36190;BME280;22232;50.914;13.858;2023-03-22T01:12:20;97485.28;;;9.94;100.00
36190;BME280;22232;50.914;13.858;2023-03-22T01:14:48;97488.66;;;9.90;100.00
36190;BME280;22232;50.914;13.858;2023-03-22T01:17:16;97486.13;;;9.83;100.00
36190;BME280;22232;50.914;13.858;2023-03-22T01:19:43;97492.13;;;9.78;100.00
36190;BME280;22232;50.914;13.858;2023-03-22T01:22:11;97494.47;;;9.75;100.00
36190;BME280;22232;50.914;13.858;2023-03-22T01:24:39;97494.69;;;9.73;100.00
36190;BME280;22232;50.914;13.858;2023-03-22T01:27:07;97484.63;;;9.75;100.00
36190;BME280;22232;50.914;13.858;2023-03-22T01:29:34;97477.88;;;9.84;100.00
36190;BME280;22232;50.914;13.858;2023-03-22T01:32:02;97478.81;;;9.90;100.00
36190;BME280;22232;50.914;13.858;2023-03-22T01:34:30;97476.50;;;9.82;100.00
36190;BME280;22232;50.914;13.858;2023-03-22T01:36:59;97483.00;;;9.74;100.00
36190;BME280;22232;50.914;13.858;2023-03-22T01:39:28;97478.69;;;9.73;100.00
36190;BME280;22232;50.914;13.858;2023-03-22T01:41:58;97479.97;;;9.71;100.00
36190;BME280;22232;50.914;13.858;2023-03-22T01:44:29;97475.13;;;9.68;100.00
36190;BME280;22232;50.914;13.858;2023-03-22T01:46:58;97461.72;;;9.62;100.00
36190;BME280;22232;50.914;13.858;2023-03-22T01:49:32;97474.44;;;9.60;100.00
36190;BME280;22232;50.914;13.858;2023-03-22T01:52:04;97470.38;;;9.58;100.00
36190;BME280;22232;50.914;13.858;2023-03-22T01:54:52;97463.91;;;9.54;100.00
36190;BME280;22232;50.914;13.858;2023-03-22T01:57:59;97465.97;;;9.52;100.00
36190;BME280;22232;50.914;13.858;2023-03-22T02:00:39;97460.78;;;9.45;100.00
36190;BME280;22232;50.914;13.858;2023-03-22T02:03:37;97455.69;;;9.44;100.00
36190;BME280;22232;50.914;13.858;2023-03-22T02:06:10;97451.97;;;9.33;100.00
36190;BME280;22232;50.914;13.858;2023-03-22T02:08:38;97458.22;;;9.27;100.00
36190;BME280;22232;50.914;13.858;2023-03-22T02:11:20;97444.91;;;9.15;100.00
36190;BME280;22232;50.914;13.858;2023-03-22T02:14:15;97448.50;;;9.09;100.00
36190;BME280;22232;50.914;13.858;2023-03-22T02:37:33;97467.19;;;8.48;100.00
36190;BME280;22232;50.914;13.858;2023-03-22T02:40:26;97470.09;;;8.47;100.00
36190;BME280;22232;50.914;13.858;2023-03-22T02:43:05;97473.41;;;8.42;100.00
36190;BME280;22232;50.914;13.858;2023-03-22T02:45:50;97468.44;;;8.46;100.00
36190;BME280;22232;50.914;13.858;2023-03-22T02:48:27;97465.78;;;8.46;100.00
36190;BME280;22232;50.914;13.858;2023-03-22T02:51:14;97464.03;;;8.40;100.00
36190;BME280;22232;50.914;13.858;2023-03-22T02:54:00;97460.97;;;8.36;100.00
36190;BME280;22232;50.914;13.858;2023-03-22T02:56:45;97465.72;;;8.34;100.00
36190;BME280;22232;50.914;13.858;2023-03-22T02:59:16;97462.03;;;8.35;100.00
36190;BME280;22232;50.914;13.858;2023-03-22T03:01:49;97454.66;;;8.37;100.00
36190;BME280;22232;50.914;13.858;2023-03-22T03:04:27;97456.13;;;8.33;100.00
36190;BME280;22232;50.914;13.858;2023-03-22T03:07:08;97448.50;;;8.37;100.00
36190;BME280;22232;50.914;13.858;2023-03-22T03:09:39;97449.34;;;8.37;100.00
36190;BME280;22232;50.914;13.858;2023-03-22T03:12:17;97458.13;;;8.38;100.00
36190;BME280;22232;50.914;13.858;2023-03-22T03:14:45;97447.69;;;8.36;100.00
36190;BME280;22232;50.914;13.858;2023-03-22T03:26:11;97443.00;;;8.20;100.00
36190;BME280;22232;50.914;13.858;2023-03-22T03:29:13;97450.03;;;8.14;100.00
36190;BME280;22232;50.914;13.858;2023-03-22T03:32:00;97463.16;;;8.09;100.00
36190;BME280;22232;50.914;13.858;2023-03-22T03:37:16;97459.88;;;7.95;100.00
36190;BME280;22232;50.914;13.858;2023-03-22T03:39:53;97461.28;;;7.98;100.00
36190;BME280;22232;50.914;13.858;2023-03-22T03:42:24;97461.72;;;7.95;100.00
36190;BME280;22232;50.914;13.858;2023-03-22T03:44:54;97455.00;;;7.92;100.00
36190;BME280;22232;50.914;13.858;2023-03-22T03:47:23;97461.03;;;7.81;100.00
36190;BME280;22232;50.914;13.858;2023-03-22T03:49:51;97457.34;;;7.82;100.00
36190;BME280;22232;50.914;13.858;2023-03-22T03:52:19;97452.03;;;7.82;100.00
36190;BME280;22232;50.914;13.858;2023-03-22T03:54:51;97463.31;;;7.77;100.00
36190;BME280;22232;50.914;13.858;2023-03-22T03:57:25;97463.78;;;7.74;100.00
36190;BME280;22232;50.914;13.858;2023-03-22T03:59:53;97461.31;;;7.73;100.00
36190;BME280;22232;50.914;13.858;2023-03-22T04:02:43;97455.06;;;7.67;100.00
36190;BME280;22232;50.914;13.858;2023-03-22T04:05:25;97462.00;;;7.68;100.00
36190;BME280;22232;50.914;13.858;2023-03-22T04:07:52;97460.44;;;7.61;100.00
36190;BME280;22232;50.914;13.858;2023-03-22T04:10:20;97456.00;;;7.54;100.00
36190;BME280;22232;50.914;13.858;2023-03-22T04:12:48;97463.16;;;7.54;100.00
36190;BME280;22232;50.914;13.858;2023-03-22T04:15:17;97456.44;;;7.51;100.00
36190;BME280;22232;50.914;13.858;2023-03-22T04:17:50;97461.97;;;7.50;100.00
36190;BME280;22232;50.914;13.858;2023-03-22T04:20:23;97457.31;;;7.45;100.00
36190;BME280;22232;50.914;13.858;2023-03-22T04:22:52;97455.72;;;7.44;100.00
36190;BME280;22232;50.914;13.858;2023-03-22T04:25:23;97452.00;;;7.45;100.00
36190;BME280;22232;50.914;13.858;2023-03-22T04:28:09;97448.13;;;7.48;100.00
36190;BME280;22232;50.914;13.858;2023-03-22T04:30:37;97444.66;;;7.47;100.00
36190;BME280;22232;50.914;13.858;2023-03-22T04:33:28;97445.97;;;7.38;100.00
36190;BME280;22232;50.914;13.858;2023-03-22T04:36:13;97446.84;;;7.32;100.00
36190;BME280;22232;50.914;13.858;2023-03-22T04:39:08;97443.88;;;7.22;100.00
36190;BME280;22232;50.914;13.858;2023-03-22T04:41:37;97444.09;;;7.20;100.00
36190;BME280;22232;50.914;13.858;2023-03-22T04:44:06;97437.59;;;7.16;100.00
36190;BME280;22232;50.914;13.858;2023-03-22T04:46:37;97430.28;;;7.11;100.00
36190;BME280;22232;50.914;13.858;2023-03-22T04:49:06;97437.66;;;7.09;100.00
36190;BME280;22232;50.914;13.858;2023-03-22T04:51:37;97434.19;;;7.09;100.00
36190;BME280;22232;50.914;13.858;2023-03-22T04:54:21;97430.16;;;7.06;100.00
36190;BME280;22232;50.914;13.858;2023-03-22T04:56:50;97433.25;;;7.03;100.00
36190;BME280;22232;50.914;13.858;2023-03-22T04:59:20;97439.34;;;7.04;100.00
36190;BME280;22232;50.914;13.858;2023-03-22T05:01:49;97434.84;;;7.04;100.00
36190;BME280;22232;50.914;13.858;2023-03-22T05:04:21;97430.72;;;7.08;100.00
36190;BME280;22232;50.914;13.858;2023-03-22T05:06:55;97425.41;;;7.08;100.00
36190;BME280;22232;50.914;13.858;2023-03-22T05:09:30;97428.38;;;7.00;100.00
36190;BME280;22232;50.914;13.858;2023-03-22T05:11:57;97419.09;;;7.09;100.00
36190;BME280;22232;50.914;13.858;2023-03-22T05:14:47;97420.16;;;7.27;100.00
36190;BME280;22232;50.914;13.858;2023-03-22T05:17:20;97418.84;;;7.54;100.00
36190;BME280;22232;50.914;13.858;2023-03-22T05:19:49;97413.84;;;7.83;100.00
36190;BME280;22232;50.914;13.858;2023-03-22T05:22:18;97417.09;;;8.03;100.00
36190;BME280;22232;50.914;13.858;2023-03-22T05:24:50;97412.66;;;7.79;100.00
36190;BME280;22232;50.914;13.858;2023-03-22T05:27:22;97415.09;;;7.62;100.00
36190;BME280;22232;50.914;13.858;2023-03-22T05:30:24;97413.66;;;7.23;100.00
36190;BME280;22232;50.914;13.858;2023-03-22T05:32:58;97409.13;;;7.05;100.00
36190;BME280;22232;50.914;13.858;2023-03-22T05:35:34;97412.91;;;6.97;100.00
36190;BME280;22232;50.914;13.858;2023-03-22T05:38:03;97417.47;;;7.08;100.00
36190;BME280;22232;50.914;13.858;2023-03-22T05:40:34;97412.97;;;7.09;100.00
36190;BME280;22232;50.914;13.858;2023-03-22T05:43:01;97418.78;;;7.24;100.00
36190;BME280;22232;50.914;13.858;2023-03-22T05:45:29;97422.53;;;7.35;100.00
36190;BME280;22232;50.914;13.858;2023-03-22T05:48:25;97419.09;;;7.53;100.00
36190;BME280;22232;50.914;13.858;2023-03-22T05:50:53;97425.34;;;7.77;100.00
36190;BME280;22232;50.914;13.858;2023-03-22T05:53:21;97421.16;;;8.18;100.00
36190;BME280;22232;50.914;13.858;2023-03-22T05:56:04;97412.97;;;8.91;100.00
36190;BME280;22232;50.914;13.858;2023-03-22T05:58:38;97411.63;;;9.88;100.00
36190;BME280;22232;50.914;13.858;2023-03-22T06:01:11;97413.69;;;10.84;100.00
36190;BME280;22232;50.914;13.858;2023-03-22T06:03:46;97403.84;;;11.40;100.00
36190;BME280;22232;50.914;13.858;2023-03-22T06:06:34;97401.91;;;11.91;100.00
36190;BME280;22232;50.914;13.858;2023-03-22T06:09:08;97412.59;;;11.91;100.00
36190;BME280;22232;50.914;13.858;2023-03-22T06:11:48;97406.50;;;11.57;100.00
36190;BME280;22232;50.914;13.858;2023-03-22T06:14:16;97404.19;;;11.65;100.00
36190;BME280;22232;50.914;13.858;2023-03-22T06:17:02;97409.00;;;11.63;100.00
36190;BME280;22232;50.914;13.858;2023-03-22T06:19:30;97413.94;;;11.55;100.00
36190;BME280;22232;50.914;13.858;2023-03-22T06:22:01;97412.84;;;11.73;100.00
36190;BME280;22232;50.914;13.858;2023-03-22T06:24:30;97414.25;;;11.58;100.00
36190;BME280;22232;50.914;13.858;2023-03-22T06:26:58;97405.75;;;11.61;100.00
36190;BME280;22232;50.914;13.858;2023-03-22T06:29:27;97412.94;;;11.78;100.00
36190;BME280;22232;50.914;13.858;2023-03-22T06:31:57;97410.22;;;11.94;100.00
36190;BME280;22232;50.914;13.858;2023-03-22T06:34:25;97414.75;;;12.70;100.00
36190;BME280;22232;50.914;13.858;2023-03-22T06:36:52;97401.38;;;13.35;100.00
36190;BME280;22232;50.914;13.858;2023-03-22T06:39:33;97394.59;;;13.69;100.00
36190;BME280;22232;50.914;13.858;2023-03-22T06:42:01;97387.88;;;14.40;100.00
36190;BME280;22232;50.914;13.858;2023-03-22T06:44:29;97395.13;;;14.39;100.00
36190;BME280;22232;50.914;13.858;2023-03-22T06:47:17;97389.28;;;14.63;100.00
36190;BME280;22232;50.914;13.858;2023-03-22T06:49:57;97395.63;;;14.26;100.00
36190;BME280;22232;50.914;13.858;2023-03-22T06:52:36;97398.81;;;14.23;100.00
36190;BME280;22232;50.914;13.858;2023-03-22T06:55:07;97395.91;;;14.25;100.00
36190;BME280;22232;50.914;13.858;2023-03-22T06:57:34;97389.44;;;14.26;100.00
36190;BME280;22232;50.914;13.858;2023-03-22T07:00:02;97390.28;;;14.31;100.00
36190;BME280;22232;50.914;13.858;2023-03-22T07:02:31;97389.69;;;14.24;100.00
36190;BME280;22232;50.914;13.858;2023-03-22T07:05:17;97382.78;;;14.38;100.00
36190;BME280;22232;50.914;13.858;2023-03-22T07:07:45;97388.94;;;14.34;100.00
36190;BME280;22232;50.914;13.858;2023-03-22T07:10:12;97383.25;;;14.10;100.00
36190;BME280;22232;50.914;13.858;2023-03-22T07:12:40;97394.00;;;14.20;100.00
36190;BME280;22232;50.914;13.858;2023-03-22T07:15:11;97398.81;;;14.23;100.00
36190;BME280;22232;50.914;13.858;2023-03-22T07:17:50;97395.09;;;14.29;100.00
36190;BME280;22232;50.914;13.858;2023-03-22T07:20:18;97399.16;;;14.47;100.00
36190;BME280;22232;50.914;13.858;2023-03-22T07:22:48;97393.06;;;14.87;100.00
36190;BME280;22232;50.914;13.858;2023-03-22T07:25:19;97396.28;;;15.10;100.00
36190;BME280;22232;50.914;13.858;2023-03-22T07:27:51;97391.66;;;15.36;100.00
36190;BME280;22232;50.914;13.858;2023-03-22T07:30:20;97394.63;;;15.50;100.00
36190;BME280;22232;50.914;13.858;2023-03-22T07:32:48;97389.53;;;15.38;100.00
36190;BME280;22232;50.914;13.858;2023-03-22T07:35:16;97390.38;;;15.13;99.82
36190;BME280;22232;50.914;13.858;2023-03-22T07:37:46;97391.69;;;15.21;100.00
36190;BME280;22232;50.914;13.858;2023-03-22T07:40:21;97395.22;;;15.16;100.00
36190;BME280;22232;50.914;13.858;2023-03-22T07:42:52;97380.41;;;15.03;100.00
36190;BME280;22232;50.914;13.858;2023-03-22T07:45:54;97386.28;;;15.36;100.00
36190;BME280;22232;50.914;13.858;2023-03-22T07:48:40;97390.88;;;15.41;94.54
36190;BME280;22232;50.914;13.858;2023-03-22T07:51:37;97383.56;;;15.72;99.74
36190;BME280;22232;50.914;13.858;2023-03-22T07:54:06;97391.31;;;15.83;93.11
36190;BME280;22232;50.914;13.858;2023-03-22T07:56:34;97389.44;;;15.79;89.02
36190;BME280;22232;50.914;13.858;2023-03-22T07:59:02;97390.69;;;16.07;88.30
36190;BME280;22232;50.914;13.858;2023-03-22T08:01:30;97388.00;;;16.51;84.22
36190;BME280;22232;50.914;13.858;2023-03-22T08:04:10;97381.63;;;17.16;78.67
36190;BME280;22232;50.914;13.858;2023-03-22T08:07:00;97390.69;;;17.83;73.38
36190;BME280;22232;50.914;13.858;2023-03-22T08:09:28;97390.91;;;17.87;69.81
36190;BME280;22232;50.914;13.858;2023-03-22T08:11:56;97389.16;;;18.39;75.00
36190;BME280;22232;50.914;13.858;2023-03-22T08:14:24;97387.41;;;18.48;67.00
36190;BME280;22232;50.914;13.858;2023-03-22T08:17:05;97390.75;;;18.40;61.96
36190;BME280;22232;50.914;13.858;2023-03-22T08:19:33;97393.97;;;18.23;63.10
36190;BME280;22232;50.914;13.858;2023-03-22T08:22:01;97394.63;;;17.91;65.62
36190;BME280;22232;50.914;13.858;2023-03-22T08:24:49;97388.78;;;18.27;65.63
36190;BME280;22232;50.914;13.858;2023-03-22T08:27:29;97391.13;;;18.33;62.77
36190;BME280;22232;50.914;13.858;2023-03-22T08:29:59;97391.44;;;18.32;62.97
36190;BME280;22232;50.914;13.858;2023-03-22T08:32:27;97393.00;;;18.14;61.60
36190;BME280;22232;50.914;13.858;2023-03-22T08:34:54;97383.25;;;17.94;60.50
36190;BME280;22232;50.914;13.858;2023-03-22T08:37:22;97384.25;;;18.22;59.60
36190;BME280;22232;50.914;13.858;2023-03-22T08:39:50;97385.50;;;18.49;60.36
36190;BME280;22232;50.914;13.858;2023-03-22T08:42:25;97389.91;;;18.45;57.87
36190;BME280;22232;50.914;13.858;2023-03-22T08:44:52;97384.56;;;18.96;58.86
36190;BME280;22232;50.914;13.858;2023-03-22T08:47:23;97380.75;;;18.97;54.82
36190;BME280;22232;50.914;13.858;2023-03-22T08:49:55;97387.06;;;19.39;57.64
36190;BME280;22232;50.914;13.858;2023-03-22T08:52:33;97384.25;;;19.44;55.09
36190;BME280;22232;50.914;13.858;2023-03-22T08:55:07;97384.69;;;19.19;55.11
36190;BME280;22232;50.914;13.858;2023-03-22T08:58:01;97385.03;;;19.31;57.18
36190;BME280;22232;50.914;13.858;2023-03-22T09:00:48;97382.59;;;19.16;59.07
36190;BME280;22232;50.914;13.858;2023-03-22T09:03:42;97373.47;;;19.12;57.45
36190;BME280;22232;50.914;13.858;2023-03-22T09:06:10;97384.56;;;19.10;57.61
36190;BME280;22232;50.914;13.858;2023-03-22T09:08:39;97376.72;;;18.95;58.00
36190;BME280;22232;50.914;13.858;2023-03-22T09:11:14;97368.88;;;18.79;59.76
36190;BME280;22232;50.914;13.858;2023-03-22T09:13:47;97378.50;;;18.86;59.07
36190;BME280;22232;50.914;13.858;2023-03-22T09:16:14;97375.22;;;19.35;59.26
36190;BME280;22232;50.914;13.858;2023-03-22T09:18:44;97365.81;;;19.46;55.78
36190;BME280;22232;50.914;13.858;2023-03-22T09:21:15;97362.59;;;19.44;54.64
36190;BME280;22232;50.914;13.858;2023-03-22T09:23:55;97374.47;;;19.90;55.97
36190;BME280;22232;50.914;13.858;2023-03-22T09:26:32;97362.25;;;20.06;55.31
36190;BME280;22232;50.914;13.858;2023-03-22T09:28:59;97373.97;;;20.15;54.39
36190;BME280;22232;50.914;13.858;2023-03-22T09:31:27;97375.75;;;20.34;53.19
36190;BME280;22232;50.914;13.858;2023-03-22T09:34:06;97366.41;;;20.76;55.73
36190;BME280;22232;50.914;13.858;2023-03-22T09:36:33;97363.25;;;20.60;50.17
36190;BME280;22232;50.914;13.858;2023-03-22T09:39:01;97352.34;;;20.38;50.27
36190;BME280;22232;50.914;13.858;2023-03-22T09:41:38;97355.13;;;20.10;52.67
36190;BME280;22232;50.914;13.858;2023-03-22T09:44:13;97365.84;;;20.15;53.25
36190;BME280;22232;50.914;13.858;2023-03-22T09:46:47;97350.59;;;19.51;53.60
36190;BME280;22232;50.914;13.858;2023-03-22T09:49:22;97360.16;;;18.26;55.94
36190;BME280;22232;50.914;13.858;2023-03-22T09:51:52;97348.88;;;18.05;59.34
36190;BME280;22232;50.914;13.858;2023-03-22T09:54:37;97351.59;;;17.81;60.69
36190;BME280;22232;50.914;13.858;2023-03-22T10:10:54;97330.78;;;18.24;60.92
36190;BME280;22232;50.914;13.858;2023-03-22T10:13:33;97325.00;;;18.31;59.18
36190;BME280;22232;50.914;13.858;2023-03-22T10:16:05;97322.50;;;18.34;61.94
36190;BME280;22232;50.914;13.858;2023-03-22T10:18:39;97323.00;;;17.80;59.05
36190;BME280;22232;50.914;13.858;2023-03-22T10:21:11;97325.50;;;17.95;62.45
36190;BME280;22232;50.914;13.858;2023-03-22T10:23:46;97321.78;;;18.29;61.26
36190;BME280;22232;50.914;13.858;2023-03-22T10:26:37;97316.91;;;17.93;58.83
36190;BME280;22232;50.914;13.858;2023-03-22T10:29:22;97318.69;;;17.79;60.07
36190;BME280;22232;50.914;13.858;2023-03-22T10:31:50;97321.00;;;18.09;65.44
36190;BME280;22232;50.914;13.858;2023-03-22T10:34:25;97313.59;;;17.77;63.49
36190;BME280;22232;50.914;13.858;2023-03-22T10:37:02;97314.22;;;17.93;65.90
36190;BME280;22232;50.914;13.858;2023-03-22T10:39:35;97301.34;;;17.85;65.09
36190;BME280;22232;50.914;13.858;2023-03-22T10:42:20;97296.19;;;18.26;64.27
36190;BME280;22232;50.914;13.858;2023-03-22T10:44:52;97291.50;;;18.13;59.56
36190;BME280;22232;50.914;13.858;2023-03-22T10:47:44;97298.38;;;17.86;63.07
36190;BME280;22232;50.914;13.858;2023-03-22T10:50:19;97289.78;;;18.03;63.51
36190;BME280;22232;50.914;13.858;2023-03-22T10:52:56;97292.47;;;18.41;63.08
36190;BME280;22232;50.914;13.858;2023-03-22T10:55:25;97288.38;;;18.25;61.85
36190;BME280;22232;50.914;13.858;2023-03-22T11:00:47;97277.47;;;18.49;58.94
36190;BME280;22232;50.914;13.858;2023-03-22T11:03:37;97271.91;;;18.78;58.58
36190;BME280;22232;50.914;13.858;2023-03-22T11:08:49;97273.72;;;18.31;59.76
36190;BME280;22232;50.914;13.858;2023-03-22T11:11:37;97272.78;;;18.03;60.74
36190;BME280;22232;50.914;13.858;2023-03-22T11:14:35;97268.34;;;17.69;64.16
36190;BME280;22232;50.914;13.858;2023-03-22T11:17:17;97267.38;;;18.22;65.79
36190;BME280;22232;50.914;13.858;2023-03-22T11:19:54;97258.50;;;18.02;61.85
36190;BME280;22232;50.914;13.858;2023-03-22T11:22:37;97253.81;;;17.89;61.51
36190;BME280;22232;50.914;13.858;2023-03-22T11:25:34;97252.44;;;17.67;66.37
36190;BME280;22232;50.914;13.858;2023-03-22T11:30:31;97256.00;;;17.44;61.99
36190;BME280;22232;50.914;13.858;2023-03-22T11:33:08;97253.72;;;17.32;67.48
36190;BME280;22232;50.914;13.858;2023-03-22T11:35:44;97241.03;;;17.33;71.42
36190;BME280;22232;50.914;13.858;2023-03-22T11:41:08;97237.31;;;17.72;69.98
36190;BME280;22232;50.914;13.858;2023-03-22T11:43:45;97213.94;;;18.38;68.13
36190;BME280;22232;50.914;13.858;2023-03-22T11:46:15;97223.72;;;18.66;61.18
36190;BME280;22232;50.914;13.858;2023-03-22T11:48:48;97212.88;;;18.20;61.65
36190;BME280;22232;50.914;13.858;2023-03-22T11:51:25;97216.25;;;18.11;60.96
36190;BME280;22232;50.914;13.858;2023-03-22T11:53:56;97206.59;;;18.24;62.20
36190;BME280;22232;50.914;13.858;2023-03-22T11:56:28;97203.44;;;18.36;61.22
36190;BME280;22232;50.914;13.858;2023-03-22T11:59:02;97196.72;;;18.66;59.81
36190;BME280;22232;50.914;13.858;2023-03-22T12:01:39;97199.38;;;18.99;57.39
36190;BME280;22232;50.914;13.858;2023-03-22T12:04:13;97209.25;;;18.90;56.05
36190;BME280;22232;50.914;13.858;2023-03-22T12:06:43;97189.84;;;18.74;56.08
36190;BME280;22232;50.914;13.858;2023-03-22T12:09:24;97187.63;;;18.29;55.67
36190;BME280;22232;50.914;13.858;2023-03-22T12:11:56;97178.34;;;18.03;56.74
36190;BME280;22232;50.914;13.858;2023-03-22T12:14:33;97176.69;;;17.88;58.10
36190;BME280;22232;50.914;13.858;2023-03-22T12:22:49;97165.25;;;18.75;55.11
36190;BME280;22232;50.914;13.858;2023-03-22T12:28:35;97159.00;;;19.30;52.05
36190;BME280;22232;50.914;13.858;2023-03-22T12:31:17;97159.06;;;19.66;51.84
36190;BME280;22232;50.914;13.858;2023-03-22T12:33:51;97157.06;;;19.72;52.08
36190;BME280;22232;50.914;13.858;2023-03-22T12:36:58;97160.53;;;19.59;52.91
36190;BME280;22232;50.914;13.858;2023-03-22T12:39:32;97146.28;;;20.03;51.21
36190;BME280;22232;50.914;13.858;2023-03-22T12:42:14;97151.53;;;20.00;48.00
36190;BME280;22232;50.914;13.858;2023-03-22T12:44:44;97144.75;;;20.11;48.28
36190;BME280;22232;50.914;13.858;2023-03-22T12:47:33;97144.97;;;20.23;47.95
36190;BME280;22232;50.914;13.858;2023-03-22T12:50:30;97136.50;;;20.16;48.31
36190;BME280;22232;50.914;13.858;2023-03-22T12:53:01;97131.03;;;20.30;50.19
36190;BME280;22232;50.914;13.858;2023-03-22T12:55:34;97130.84;;;20.04;48.72
36190;BME280;22232;50.914;13.858;2023-03-22T12:58:07;97127.38;;;20.34;50.17
36190;BME280;22232;50.914;13.858;2023-03-22T13:00:47;97128.00;;;20.31;52.21
36190;BME280;22232;50.914;13.858;2023-03-22T13:05:48;97124.50;;;20.08;50.61
36190;BME280;22232;50.914;13.858;2023-03-22T13:08:21;97120.47;;;19.97;50.25
36190;BME280;22232;50.914;13.858;2023-03-22T13:11:03;97122.06;;;19.98;50.03
36190;BME280;22232;50.914;13.858;2023-03-22T13:13:39;97128.78;;;19.78;49.16
36190;BME280;22232;50.914;13.858;2023-03-22T13:24:18;97116.59;;;20.43;49.80
36190;BME280;22232;50.914;13.858;2023-03-22T13:26:49;97118.75;;;20.55;47.73
36190;BME280;22232;50.914;13.858;2023-03-22T13:29:24;97114.22;;;20.19;44.93
36190;BME280;22232;50.914;13.858;2023-03-22T13:31:56;97107.06;;;20.23;46.72
36190;BME280;22232;50.914;13.858;2023-03-22T13:34:43;97113.53;;;20.36;47.29
36190;BME280;22232;50.914;13.858;2023-03-22T13:37:45;97100.25;;;20.26;47.65
36190;BME280;22232;50.914;13.858;2023-03-22T13:40:33;97107.25;;;20.27;47.56
36190;BME280;22232;50.914;13.858;2023-03-22T14:04:55;97084.88;;;19.90;46.97
36190;BME280;22232;50.914;13.858;2023-03-22T14:07:41;97080.47;;;19.94;46.78
36190;BME280;22232;50.914;13.858;2023-03-22T14:15:53;97079.91;;;19.61;48.45
36190;BME280;22232;50.914;13.858;2023-03-22T14:18:30;97070.50;;;19.58;48.97
36190;BME280;22232;50.914;13.858;2023-03-22T14:21:02;97084.97;;;19.40;49.02
36190;BME280;22232;50.914;13.858;2023-03-22T14:23:35;97082.81;;;19.28;49.54
36190;BME280;22232;50.914;13.858;2023-03-22T14:26:25;97086.81;;;19.17;51.90
36190;BME280;22232;50.914;13.858;2023-03-22T14:28:52;97080.97;;;19.01;51.24
36190;BME280;22232;50.914;13.858;2023-03-22T14:31:24;97079.28;;;18.91;50.01
36190;BME280;22232;50.914;13.858;2023-03-22T14:33:52;97074.19;;;18.76;48.73
36190;BME280;22232;50.914;13.858;2023-03-22T14:36:19;97075.97;;;18.67;49.75
36190;BME280;22232;50.914;13.858;2023-03-22T14:38:49;97079.97;;;18.55;50.03
36190;BME280;22232;50.914;13.858;2023-03-22T14:41:19;97073.47;;;18.56;49.31
36190;BME280;22232;50.914;13.858;2023-03-22T14:43:47;97077.16;;;18.47;48.12
36190;BME280;22232;50.914;13.858;2023-03-22T14:46:20;97069.56;;;18.35;49.45
36190;BME280;22232;50.914;13.858;2023-03-22T14:48:56;97073.66;;;18.32;48.83
36190;BME280;22232;50.914;13.858;2023-03-22T14:51:30;97077.84;;;18.25;50.19
36190;BME280;22232;50.914;13.858;2023-03-22T14:53:58;97070.41;;;18.17;51.23
36190;BME280;22232;50.914;13.858;2023-03-22T14:56:31;97077.59;;;18.07;50.52
36190;BME280;22232;50.914;13.858;2023-03-22T14:59:00;97074.28;;;17.97;49.96
36190;BME280;22232;50.914;13.858;2023-03-22T15:01:52;97069.78;;;17.92;50.22
36190;BME280;22232;50.914;13.858;2023-03-22T15:04:21;97078.78;;;18.01;50.94
36190;BME280;22232;50.914;13.858;2023-03-22T15:06:53;97067.94;;;18.20;50.79
36190;BME280;22232;50.914;13.858;2023-03-22T15:09:22;97071.84;;;18.28;49.80